sensor_id;sensor_type;location;lat;lon;timestamp;P1;durP1;ratioP1;P2;durP2;ratioP2
57401;SDS011;43226;51.110;6.998;2023-07-31T00:01:13;5.80;;;2.60;;
57401;SDS011;43226;51.110;6.998;2023-07-31T00:03:38;5.87;;;2.90;;
57401;SDS011;43226;51.110;6.998;2023-07-31T00:06:03;3.67;;;2.53;;
57401;SDS011;43226;51.110;6.998;2023-07-31T00:08:29;3.43;;;2.10;;
57401;SDS011;43226;51.110;6.998;2023-07-31T00:10:54;3.63;;;2.60;;
57401;SDS011;43226;51.110;6.998;2023-07-31T00:13:19;5.00;;;2.57;;
57401;SDS011;43226;51.110;6.998;2023-07-31T00:15:44;9.20;;;2.60;;
57401;SDS011;43226;51.110;6.998;2023-07-31T00:18:09;7.43;;;3.57;;
57401;SDS011;43226;51.110;6.998;2023-07-31T00:20:35;9.20;;;3.23;;
57401;SDS011;43226;51.110;6.998;2023-07-31T00:23:00;5.53;;;2.90;;
57401;SDS011;43226;51.110;6.998;2023-07-31T00:25:25;10.07;;;5.37;;
57401;SDS011;43226;51.110;6.998;2023-07-31T00:27:50;13.63;;;3.23;;
57401;SDS011;43226;51.110;6.998;2023-07-31T00:30:15;7.27;;;3.07;;
57401;SDS011;43226;51.110;6.998;2023-07-31T00:32:41;7.73;;;2.67;;
57401;SDS011;43226;51.110;6.998;2023-07-31T00:35:06;10.57;;;3.10;;
57401;SDS011;43226;51.110;6.998;2023-07-31T00:37:31;8.60;;;2.67;;
57401;SDS011;43226;51.110;6.998;2023-07-31T00:39:56;7.20;;;3.00;;
57401;SDS011;43226;51.110;6.998;2023-07-31T00:42:22;6.73;;;3.33;;
57401;SDS011;43226;51.110;6.998;2023-07-31T00:44:47;4.53;;;2.63;;
57401;SDS011;43226;51.110;6.998;2023-07-31T00:47:12;6.63;;;3.00;;
57401;SDS011;43226;51.110;6.998;2023-07-31T00:49:37;5.37;;;2.60;;
57401;SDS011;43226;51.110;6.998;2023-07-31T00:52:02;15.20;;;3.60;;
57401;SDS011;43226;51.110;6.998;2023-07-31T00:54:28;6.17;;;2.70;;
57401;SDS011;43226;51.110;6.998;2023-07-31T00:56:53;6.37;;;3.17;;
57401;SDS011;43226;51.110;6.998;2023-07-31T00:59:19;5.10;;;2.87;;
57401;SDS011;43226;51.110;6.998;2023-07-31T01:01:44;6.70;;;2.87;;
57401;SDS011;43226;51.110;6.998;2023-07-31T01:04:10;11.53;;;2.77;;
57401;SDS011;43226;51.110;6.998;2023-07-31T01:06:39;5.57;;;3.57;;
57401;SDS011;43226;51.110;6.998;2023-07-31T01:09:11;5.50;;;3.07;;
57401;SDS011;43226;51.110;6.998;2023-07-31T01:11:56;8.20;;;2.63;;
57401;SDS011;43226;51.110;6.998;2023-07-31T01:14:21;12.07;;;3.93;;
57401;SDS011;43226;51.110;6.998;2023-07-31T01:16:46;10.30;;;3.07;;
57401;SDS011;43226;51.110;6.998;2023-07-31T01:19:11;9.33;;;2.23;;
57401;SDS011;43226;51.110;6.998;2023-07-31T01:21:53;4.00;;;2.10;;
57401;SDS011;43226;51.110;6.998;2023-07-31T01:26:48;8.93;;;2.93;;
57401;SDS011;43226;51.110;6.998;2023-07-31T01:29:19;6.43;;;2.60;;
57401;SDS011;43226;51.110;6.998;2023-07-31T01:31:46;7.67;;;2.23;;
57401;SDS011;43226;51.110;6.998;2023-07-31T01:34:13;8.93;;;2.80;;
57401;SDS011;43226;51.110;6.998;2023-07-31T01:36:39;6.83;;;3.40;;
57401;SDS011;43226;51.110;6.998;2023-07-31T01:39:04;8.43;;;2.63;;
57401;SDS011;43226;51.110;6.998;2023-07-31T01:41:29;3.17;;;2.20;;
57401;SDS011;43226;51.110;6.998;2023-07-31T01:43:54;8.33;;;2.53;;
57401;SDS011;43226;51.110;6.998;2023-07-31T01:46:20;7.30;;;3.10;;
57401;SDS011;43226;51.110;6.998;2023-07-31T01:48:45;3.53;;;2.83;;
57401;SDS011;43226;51.110;6.998;2023-07-31T01:51:10;8.83;;;2.37;;
57401;SDS011;43226;51.110;6.998;2023-07-31T01:53:35;3.10;;;2.33;;
57401;SDS011;43226;51.110;6.998;2023-07-31T01:56:01;3.47;;;2.47;;
57401;SDS011;43226;51.110;6.998;2023-07-31T01:58:26;8.53;;;2.90;;
57401;SDS011;43226;51.110;6.998;2023-07-31T02:00:51;7.73;;;2.60;;
57401;SDS011;43226;51.110;6.998;2023-07-31T02:03:16;6.37;;;2.60;;
57401;SDS011;43226;51.110;6.998;2023-07-31T02:05:45;6.40;;;2.80;;
57401;SDS011;43226;51.110;6.998;2023-07-31T02:08:10;10.40;;;2.57;;
57401;SDS011;43226;51.110;6.998;2023-07-31T02:10:36;11.53;;;3.30;;
57401;SDS011;43226;51.110;6.998;2023-07-31T02:13:01;5.30;;;3.10;;
57401;SDS011;43226;51.110;6.998;2023-07-31T02:15:28;4.53;;;2.43;;
57401;SDS011;43226;51.110;6.998;2023-07-31T02:17:53;4.90;;;2.20;;
57401;SDS011;43226;51.110;6.998;2023-07-31T02:20:18;8.23;;;2.10;;
57401;SDS011;43226;51.110;6.998;2023-07-31T02:22:44;3.70;;;2.37;;
57401;SDS011;43226;51.110;6.998;2023-07-31T02:25:09;5.53;;;2.17;;
57401;SDS011;43226;51.110;6.998;2023-07-31T02:27:34;4.70;;;3.10;;
57401;SDS011;43226;51.110;6.998;2023-07-31T02:29:59;3.17;;;2.07;;
57401;SDS011;43226;51.110;6.998;2023-07-31T02:32:24;5.20;;;2.17;;
57401;SDS011;43226;51.110;6.998;2023-07-31T02:34:50;4.90;;;2.57;;
57401;SDS011;43226;51.110;6.998;2023-07-31T02:37:15;4.43;;;2.47;;
57401;SDS011;43226;51.110;6.998;2023-07-31T02:39:40;8.67;;;2.83;;
57401;SDS011;43226;51.110;6.998;2023-07-31T02:42:05;7.80;;;2.33;;
57401;SDS011;43226;51.110;6.998;2023-07-31T02:44:30;6.93;;;2.50;;
57401;SDS011;43226;51.110;6.998;2023-07-31T02:46:56;5.50;;;2.63;;
57401;SDS011;43226;51.110;6.998;2023-07-31T02:49:21;3.53;;;1.80;;
57401;SDS011;43226;51.110;6.998;2023-07-31T02:51:46;4.03;;;2.63;;
57401;SDS011;43226;51.110;6.998;2023-07-31T02:54:11;7.10;;;2.40;;
57401;SDS011;43226;51.110;6.998;2023-07-31T02:56:36;3.90;;;2.40;;
57401;SDS011;43226;51.110;6.998;2023-07-31T02:59:01;5.10;;;3.00;;
57401;SDS011;43226;51.110;6.998;2023-07-31T03:01:27;3.40;;;2.50;;
57401;SDS011;43226;51.110;6.998;2023-07-31T03:03:52;5.83;;;2.50;;
57401;SDS011;43226;51.110;6.998;2023-07-31T03:06:17;6.40;;;2.30;;
57401;SDS011;43226;51.110;6.998;2023-07-31T03:08:42;9.23;;;2.70;;
57401;SDS011;43226;51.110;6.998;2023-07-31T03:11:07;5.80;;;2.60;;
57401;SDS011;43226;51.110;6.998;2023-07-31T03:13:33;8.20;;;3.53;;
57401;SDS011;43226;51.110;6.998;2023-07-31T03:15:58;8.77;;;3.07;;
57401;SDS011;43226;51.110;6.998;2023-07-31T03:18:23;10.93;;;3.10;;
57401;SDS011;43226;51.110;6.998;2023-07-31T03:20:48;4.10;;;2.27;;
57401;SDS011;43226;51.110;6.998;2023-07-31T03:23:13;3.57;;;2.27;;
57401;SDS011;43226;51.110;6.998;2023-07-31T03:25:39;5.50;;;2.73;;
57401;SDS011;43226;51.110;6.998;2023-07-31T03:28:04;6.03;;;2.30;;
57401;SDS011;43226;51.110;6.998;2023-07-31T03:30:29;3.70;;;2.40;;
57401;SDS011;43226;51.110;6.998;2023-07-31T03:32:55;6.50;;;3.30;;
57401;SDS011;43226;51.110;6.998;2023-07-31T03:35:20;6.50;;;2.83;;
57401;SDS011;43226;51.110;6.998;2023-07-31T03:37:45;5.90;;;3.17;;
57401;SDS011;43226;51.110;6.998;2023-07-31T03:40:11;4.40;;;2.80;;
57401;SDS011;43226;51.110;6.998;2023-07-31T03:42:36;5.30;;;2.80;;
57401;SDS011;43226;51.110;6.998;2023-07-31T03:45:01;11.30;;;2.63;;
57401;SDS011;43226;51.110;6.998;2023-07-31T03:47:26;10.67;;;3.00;;
57401;SDS011;43226;51.110;6.998;2023-07-31T03:49:51;5.73;;;2.73;;
57401;SDS011;43226;51.110;6.998;2023-07-31T03:52:17;10.10;;;3.40;;
57401;SDS011;43226;51.110;6.998;2023-07-31T03:54:42;8.40;;;3.40;;
57401;SDS011;43226;51.110;6.998;2023-07-31T03:57:09;3.30;;;2.87;;
57401;SDS011;43226;51.110;6.998;2023-07-31T03:59:34;6.33;;;2.87;;
57401;SDS011;43226;51.110;6.998;2023-07-31T04:01:59;3.23;;;2.63;;
57401;SDS011;43226;51.110;6.998;2023-07-31T04:04:25;4.10;;;2.70;;
57401;SDS011;43226;51.110;6.998;2023-07-31T04:06:50;10.23;;;3.10;;
57401;SDS011;43226;51.110;6.998;2023-07-31T04:09:15;8.77;;;2.87;;
57401;SDS011;43226;51.110;6.998;2023-07-31T04:11:40;6.30;;;3.10;;
57401;SDS011;43226;51.110;6.998;2023-07-31T04:14:05;12.33;;;2.60;;
57401;SDS011;43226;51.110;6.998;2023-07-31T04:16:31;5.27;;;2.70;;
57401;SDS011;43226;51.110;6.998;2023-07-31T04:18:57;6.47;;;3.10;;
57401;SDS011;43226;51.110;6.998;2023-07-31T04:21:22;10.20;;;3.03;;
57401;SDS011;43226;51.110;6.998;2023-07-31T04:23:47;12.43;;;2.70;;
57401;SDS011;43226;51.110;6.998;2023-07-31T04:26:12;6.60;;;2.63;;
57401;SDS011;43226;51.110;6.998;2023-07-31T04:28:38;8.80;;;3.03;;
57401;SDS011;43226;51.110;6.998;2023-07-31T04:31:03;10.50;;;3.10;;
57401;SDS011;43226;51.110;6.998;2023-07-31T04:33:28;6.87;;;3.10;;
57401;SDS011;43226;51.110;6.998;2023-07-31T04:35:54;5.30;;;3.40;;
57401;SDS011;43226;51.110;6.998;2023-07-31T04:38:19;6.03;;;2.50;;
57401;SDS011;43226;51.110;6.998;2023-07-31T04:40:45;8.30;;;2.57;;
57401;SDS011;43226;51.110;6.998;2023-07-31T04:43:10;8.53;;;2.87;;
57401;SDS011;43226;51.110;6.998;2023-07-31T04:45:35;5.97;;;3.27;;
57401;SDS011;43226;51.110;6.998;2023-07-31T04:48:00;5.70;;;3.50;;
57401;SDS011;43226;51.110;6.998;2023-07-31T04:50:25;5.57;;;2.97;;
57401;SDS011;43226;51.110;6.998;2023-07-31T04:52:51;5.20;;;2.77;;
57401;SDS011;43226;51.110;6.998;2023-07-31T04:55:16;6.60;;;3.30;;
57401;SDS011;43226;51.110;6.998;2023-07-31T04:57:41;9.97;;;3.10;;
57401;SDS011;43226;51.110;6.998;2023-07-31T05:00:07;7.13;;;3.33;;
57401;SDS011;43226;51.110;6.998;2023-07-31T05:02:32;8.70;;;3.20;;
57401;SDS011;43226;51.110;6.998;2023-07-31T05:04:57;4.80;;;3.50;;
57401;SDS011;43226;51.110;6.998;2023-07-31T05:07:22;5.60;;;2.57;;
57401;SDS011;43226;51.110;6.998;2023-07-31T05:09:48;5.03;;;2.83;;
57401;SDS011;43226;51.110;6.998;2023-07-31T05:12:13;4.73;;;2.83;;
57401;SDS011;43226;51.110;6.998;2023-07-31T05:14:38;10.73;;;3.70;;
57401;SDS011;43226;51.110;6.998;2023-07-31T05:17:03;8.43;;;3.33;;
57401;SDS011;43226;51.110;6.998;2023-07-31T05:19:29;5.10;;;3.03;;
57401;SDS011;43226;51.110;6.998;2023-07-31T05:21:54;8.47;;;3.37;;
57401;SDS011;43226;51.110;6.998;2023-07-31T05:24:20;8.53;;;3.70;;
57401;SDS011;43226;51.110;6.998;2023-07-31T05:26:45;3.53;;;2.70;;
57401;SDS011;43226;51.110;6.998;2023-07-31T05:29:11;6.40;;;2.90;;
57401;SDS011;43226;51.110;6.998;2023-07-31T05:31:36;6.53;;;3.00;;
57401;SDS011;43226;51.110;6.998;2023-07-31T05:34:03;10.70;;;3.10;;
57401;SDS011;43226;51.110;6.998;2023-07-31T05:36:28;6.83;;;2.93;;
57401;SDS011;43226;51.110;6.998;2023-07-31T05:38:53;6.87;;;3.37;;
57401;SDS011;43226;51.110;6.998;2023-07-31T05:41:19;8.00;;;3.00;;
57401;SDS011;43226;51.110;6.998;2023-07-31T05:43:44;4.87;;;2.57;;
57401;SDS011;43226;51.110;6.998;2023-07-31T05:46:09;7.63;;;3.70;;
57401;SDS011;43226;51.110;6.998;2023-07-31T05:48:34;5.57;;;2.90;;
57401;SDS011;43226;51.110;6.998;2023-07-31T05:51:00;3.17;;;2.60;;
57401;SDS011;43226;51.110;6.998;2023-07-31T05:53:25;8.20;;;2.43;;
57401;SDS011;43226;51.110;6.998;2023-07-31T05:55:50;4.53;;;3.03;;
57401;SDS011;43226;51.110;6.998;2023-07-31T05:58:16;7.80;;;2.50;;
57401;SDS011;43226;51.110;6.998;2023-07-31T06:00:41;5.53;;;2.63;;
57401;SDS011;43226;51.110;6.998;2023-07-31T06:03:06;5.73;;;3.00;;
57401;SDS011;43226;51.110;6.998;2023-07-31T06:05:32;6.10;;;3.20;;
57401;SDS011;43226;51.110;6.998;2023-07-31T06:07:57;3.87;;;2.93;;
57401;SDS011;43226;51.110;6.998;2023-07-31T06:10:22;7.50;;;2.70;;
57401;SDS011;43226;51.110;6.998;2023-07-31T06:12:47;4.80;;;2.37;;
57401;SDS011;43226;51.110;6.998;2023-07-31T06:15:13;7.27;;;3.97;;
57401;SDS011;43226;51.110;6.998;2023-07-31T06:17:38;5.60;;;3.27;;
57401;SDS011;43226;51.110;6.998;2023-07-31T06:20:03;4.00;;;2.77;;
57401;SDS011;43226;51.110;6.998;2023-07-31T06:22:32;3.63;;;2.63;;
57401;SDS011;43226;51.110;6.998;2023-07-31T06:24:57;5.67;;;2.87;;
57401;SDS011;43226;51.110;6.998;2023-07-31T06:27:23;5.47;;;3.17;;
57401;SDS011;43226;51.110;6.998;2023-07-31T06:29:48;4.60;;;3.40;;
57401;SDS011;43226;51.110;6.998;2023-07-31T06:32:13;5.60;;;3.00;;
57401;SDS011;43226;51.110;6.998;2023-07-31T06:34:38;5.00;;;3.20;;
57401;SDS011;43226;51.110;6.998;2023-07-31T06:37:04;4.50;;;3.13;;
57401;SDS011;43226;51.110;6.998;2023-07-31T06:39:29;6.47;;;3.37;;
57401;SDS011;43226;51.110;6.998;2023-07-31T06:41:54;5.20;;;3.53;;
57401;SDS011;43226;51.110;6.998;2023-07-31T06:44:19;5.30;;;3.10;;
57401;SDS011;43226;51.110;6.998;2023-07-31T06:46:44;5.03;;;3.90;;
57401;SDS011;43226;51.110;6.998;2023-07-31T06:49:10;5.67;;;3.30;;
57401;SDS011;43226;51.110;6.998;2023-07-31T06:51:35;4.77;;;3.27;;
57401;SDS011;43226;51.110;6.998;2023-07-31T06:54:01;5.57;;;3.60;;
57401;SDS011;43226;51.110;6.998;2023-07-31T06:56:26;6.87;;;2.83;;
57401;SDS011;43226;51.110;6.998;2023-07-31T06:58:52;4.83;;;3.30;;
57401;SDS011;43226;51.110;6.998;2023-07-31T07:01:17;7.50;;;3.77;;
57401;SDS011;43226;51.110;6.998;2023-07-31T07:03:42;5.33;;;3.23;;
57401;SDS011;43226;51.110;6.998;2023-07-31T07:06:08;5.50;;;3.07;;
57401;SDS011;43226;51.110;6.998;2023-07-31T07:08:33;4.30;;;3.10;;
57401;SDS011;43226;51.110;6.998;2023-07-31T07:10:58;4.23;;;2.73;;
57401;SDS011;43226;51.110;6.998;2023-07-31T07:13:23;6.70;;;3.00;;
57401;SDS011;43226;51.110;6.998;2023-07-31T07:15:49;8.33;;;2.87;;
57401;SDS011;43226;51.110;6.998;2023-07-31T07:18:14;6.40;;;2.73;;
57401;SDS011;43226;51.110;6.998;2023-07-31T07:20:39;6.33;;;3.43;;
57401;SDS011;43226;51.110;6.998;2023-07-31T07:23:05;3.03;;;2.67;;
57401;SDS011;43226;51.110;6.998;2023-07-31T07:25:30;7.80;;;3.30;;
57401;SDS011;43226;51.110;6.998;2023-07-31T07:27:55;4.87;;;2.70;;
57401;SDS011;43226;51.110;6.998;2023-07-31T07:30:21;3.57;;;2.50;;
57401;SDS011;43226;51.110;6.998;2023-07-31T07:32:46;3.63;;;2.40;;
57401;SDS011;43226;51.110;6.998;2023-07-31T07:35:11;9.60;;;3.10;;
57401;SDS011;43226;51.110;6.998;2023-07-31T07:37:36;4.47;;;2.50;;
57401;SDS011;43226;51.110;6.998;2023-07-31T07:40:01;7.80;;;2.73;;
57401;SDS011;43226;51.110;6.998;2023-07-31T07:42:27;7.83;;;2.73;;
57401;SDS011;43226;51.110;6.998;2023-07-31T07:44:52;4.75;;;2.88;;
57401;SDS011;43226;51.110;6.998;2023-07-31T07:47:17;4.67;;;2.83;;
57401;SDS011;43226;51.110;6.998;2023-07-31T07:49:42;5.77;;;2.80;;
57401;SDS011;43226;51.110;6.998;2023-07-31T07:52:07;3.97;;;2.20;;
57401;SDS011;43226;51.110;6.998;2023-07-31T07:54:33;4.07;;;3.00;;
57401;SDS011;43226;51.110;6.998;2023-07-31T07:56:58;2.53;;;2.33;;
57401;SDS011;43226;51.110;6.998;2023-07-31T07:59:24;3.87;;;2.90;;
57401;SDS011;43226;51.110;6.998;2023-07-31T08:01:49;8.67;;;2.87;;
57401;SDS011;43226;51.110;6.998;2023-07-31T08:04:14;9.30;;;3.23;;
57401;SDS011;43226;51.110;6.998;2023-07-31T08:06:39;7.90;;;3.10;;
57401;SDS011;43226;51.110;6.998;2023-07-31T08:09:05;7.00;;;3.63;;
57401;SDS011;43226;51.110;6.998;2023-07-31T08:11:34;5.73;;;2.70;;
57401;SDS011;43226;51.110;6.998;2023-07-31T08:13:59;6.57;;;2.67;;
57401;SDS011;43226;51.110;6.998;2023-07-31T08:16:24;3.93;;;2.80;;
57401;SDS011;43226;51.110;6.998;2023-07-31T08:18:49;6.63;;;3.03;;
57401;SDS011;43226;51.110;6.998;2023-07-31T08:21:15;3.13;;;2.60;;
57401;SDS011;43226;51.110;6.998;2023-07-31T08:23:40;6.87;;;3.30;;
57401;SDS011;43226;51.110;6.998;2023-07-31T08:26:05;17.57;;;4.67;;
57401;SDS011;43226;51.110;6.998;2023-07-31T08:28:30;7.93;;;2.97;;
57401;SDS011;43226;51.110;6.998;2023-07-31T08:30:55;7.30;;;2.80;;
57401;SDS011;43226;51.110;6.998;2023-07-31T08:33:21;4.20;;;2.40;;
57401;SDS011;43226;51.110;6.998;2023-07-31T08:35:46;6.43;;;2.60;;
57401;SDS011;43226;51.110;6.998;2023-07-31T08:38:11;15.60;;;3.17;;
57401;SDS011;43226;51.110;6.998;2023-07-31T08:40:37;4.93;;;2.07;;
57401;SDS011;43226;51.110;6.998;2023-07-31T08:43:03;6.40;;;2.60;;
57401;SDS011;43226;51.110;6.998;2023-07-31T08:45:28;4.93;;;3.20;;
57401;SDS011;43226;51.110;6.998;2023-07-31T08:47:54;3.77;;;2.40;;
57401;SDS011;43226;51.110;6.998;2023-07-31T08:50:20;6.30;;;2.43;;
57401;SDS011;43226;51.110;6.998;2023-07-31T08:52:46;3.67;;;2.33;;
57401;SDS011;43226;51.110;6.998;2023-07-31T08:55:12;3.40;;;2.33;;
57401;SDS011;43226;51.110;6.998;2023-07-31T08:57:37;10.63;;;3.70;;
57401;SDS011;43226;51.110;6.998;2023-07-31T09:00:03;3.27;;;2.30;;
57401;SDS011;43226;51.110;6.998;2023-07-31T09:02:31;4.37;;;2.93;;
57401;SDS011;43226;51.110;6.998;2023-07-31T09:04:59;3.80;;;2.30;;
57401;SDS011;43226;51.110;6.998;2023-07-31T09:07:24;3.53;;;2.10;;
57401;SDS011;43226;51.110;6.998;2023-07-31T09:09:50;5.37;;;2.37;;
57401;SDS011;43226;51.110;6.998;2023-07-31T09:12:15;3.03;;;2.00;;
57401;SDS011;43226;51.110;6.998;2023-07-31T09:14:40;5.40;;;2.80;;
57401;SDS011;43226;51.110;6.998;2023-07-31T09:17:06;5.47;;;2.80;;
57401;SDS011;43226;51.110;6.998;2023-07-31T09:19:34;4.70;;;2.50;;
57401;SDS011;43226;51.110;6.998;2023-07-31T09:22:02;3.80;;;2.23;;
57401;SDS011;43226;51.110;6.998;2023-07-31T09:24:28;6.10;;;2.70;;
57401;SDS011;43226;51.110;6.998;2023-07-31T09:26:54;3.67;;;2.40;;
57401;SDS011;43226;51.110;6.998;2023-07-31T09:29:20;7.60;;;3.53;;
57401;SDS011;43226;51.110;6.998;2023-07-31T09:31:45;4.37;;;2.50;;
57401;SDS011;43226;51.110;6.998;2023-07-31T09:34:11;2.63;;;2.00;;
57401;SDS011;43226;51.110;6.998;2023-07-31T09:36:47;6.60;;;2.87;;
57401;SDS011;43226;51.110;6.998;2023-07-31T09:39:13;5.50;;;2.50;;
57401;SDS011;43226;51.110;6.998;2023-07-31T09:41:39;2.87;;;2.23;;
57401;SDS011;43226;51.110;6.998;2023-07-31T09:44:04;2.40;;;1.83;;
57401;SDS011;43226;51.110;6.998;2023-07-31T09:46:30;2.60;;;2.00;;
57401;SDS011;43226;51.110;6.998;2023-07-31T09:49:03;6.70;;;2.70;;
57401;SDS011;43226;51.110;6.998;2023-07-31T09:51:29;5.13;;;2.40;;
57401;SDS011;43226;51.110;6.998;2023-07-31T09:53:56;2.67;;;1.83;;
57401;SDS011;43226;51.110;6.998;2023-07-31T09:56:21;3.95;;;2.33;;
57401;SDS011;43226;51.110;6.998;2023-07-31T09:58:46;3.60;;;2.33;;
57401;SDS011;43226;51.110;6.998;2023-07-31T10:01:12;4.27;;;2.07;;
57401;SDS011;43226;51.110;6.998;2023-07-31T10:03:38;3.33;;;1.87;;
57401;SDS011;43226;51.110;6.998;2023-07-31T10:06:04;2.83;;;1.90;;
57401;SDS011;43226;51.110;6.998;2023-07-31T10:08:30;6.63;;;2.83;;
57401;SDS011;43226;51.110;6.998;2023-07-31T10:10:55;9.43;;;3.00;;
57401;SDS011;43226;51.110;6.998;2023-07-31T10:13:23;5.80;;;2.03;;
57401;SDS011;43226;51.110;6.998;2023-07-31T10:15:48;2.87;;;2.10;;
57401;SDS011;43226;51.110;6.998;2023-07-31T10:18:14;3.10;;;2.00;;
57401;SDS011;43226;51.110;6.998;2023-07-31T10:20:40;4.97;;;3.20;;
57401;SDS011;43226;51.110;6.998;2023-07-31T10:23:05;3.57;;;2.13;;
57401;SDS011;43226;51.110;6.998;2023-07-31T10:25:31;8.30;;;2.60;;
57401;SDS011;43226;51.110;6.998;2023-07-31T10:27:57;3.33;;;2.30;;
57401;SDS011;43226;51.110;6.998;2023-07-31T10:30:24;3.33;;;2.20;;
57401;SDS011;43226;51.110;6.998;2023-07-31T10:32:51;2.60;;;2.10;;
57401;SDS011;43226;51.110;6.998;2023-07-31T10:35:16;4.53;;;3.10;;
57401;SDS011;43226;51.110;6.998;2023-07-31T10:37:42;4.23;;;2.20;;
57401;SDS011;43226;51.110;6.998;2023-07-31T10:40:13;4.23;;;2.37;;
57401;SDS011;43226;51.110;6.998;2023-07-31T10:48:12;3.50;;;2.40;;
57401;SDS011;43226;51.110;6.998;2023-07-31T10:50:46;2.67;;;2.10;;
57401;SDS011;43226;51.110;6.998;2023-07-31T10:53:22;3.00;;;2.23;;
57401;SDS011;43226;51.110;6.998;2023-07-31T10:55:47;3.10;;;2.30;;
57401;SDS011;43226;51.110;6.998;2023-07-31T10:58:14;4.70;;;1.87;;
57401;SDS011;43226;51.110;6.998;2023-07-31T11:00:43;4.47;;;2.17;;
57401;SDS011;43226;51.110;6.998;2023-07-31T11:03:15;5.13;;;2.70;;
57401;SDS011;43226;51.110;6.998;2023-07-31T11:08:23;3.80;;;1.70;;
57401;SDS011;43226;51.110;6.998;2023-07-31T11:10:49;2.00;;;1.80;;
57401;SDS011;43226;51.110;6.998;2023-07-31T11:13:15;2.90;;;2.30;;
57401;SDS011;43226;51.110;6.998;2023-07-31T11:15:40;5.47;;;1.83;;
57401;SDS011;43226;51.110;6.998;2023-07-31T11:18:06;3.37;;;1.80;;
57401;SDS011;43226;51.110;6.998;2023-07-31T11:20:33;2.20;;;1.67;;
57401;SDS011;43226;51.110;6.998;2023-07-31T11:23:00;2.60;;;1.80;;
57401;SDS011;43226;51.110;6.998;2023-07-31T11:25:25;2.60;;;1.57;;
57401;SDS011;43226;51.110;6.998;2023-07-31T11:27:51;1.83;;;1.33;;
57401;SDS011;43226;51.110;6.998;2023-07-31T11:30:18;5.67;;;1.87;;
57401;SDS011;43226;51.110;6.998;2023-07-31T11:32:44;2.77;;;1.80;;
57401;SDS011;43226;51.110;6.998;2023-07-31T11:35:12;2.30;;;1.70;;
57401;SDS011;43226;51.110;6.998;2023-07-31T11:37:43;4.20;;;1.57;;
57401;SDS011;43226;51.110;6.998;2023-07-31T11:40:09;2.50;;;1.47;;
57401;SDS011;43226;51.110;6.998;2023-07-31T11:42:34;1.57;;;1.40;;
57401;SDS011;43226;51.110;6.998;2023-07-31T11:45:02;2.43;;;1.43;;
57401;SDS011;43226;51.110;6.998;2023-07-31T11:47:27;2.10;;;1.17;;
57401;SDS011;43226;51.110;6.998;2023-07-31T11:49:52;1.33;;;1.20;;
57401;SDS011;43226;51.110;6.998;2023-07-31T11:52:18;1.00;;;0.80;;
57401;SDS011;43226;51.110;6.998;2023-07-31T11:54:45;1.50;;;1.40;;
57401;SDS011;43226;51.110;6.998;2023-07-31T11:57:10;1.20;;;1.00;;
57401;SDS011;43226;51.110;6.998;2023-07-31T11:59:37;1.10;;;1.00;;
57401;SDS011;43226;51.110;6.998;2023-07-31T12:02:02;1.20;;;0.90;;
57401;SDS011;43226;51.110;6.998;2023-07-31T12:04:27;1.00;;;0.90;;
57401;SDS011;43226;51.110;6.998;2023-07-31T12:06:53;1.67;;;1.20;;
57401;SDS011;43226;51.110;6.998;2023-07-31T12:09:18;1.17;;;1.00;;
57401;SDS011;43226;51.110;6.998;2023-07-31T12:11:43;1.30;;;1.20;;
57401;SDS011;43226;51.110;6.998;2023-07-31T12:14:19;2.50;;;0.90;;
57401;SDS011;43226;51.110;6.998;2023-07-31T12:16:44;2.80;;;1.10;;
57401;SDS011;43226;51.110;6.998;2023-07-31T12:19:09;1.00;;;0.90;;
57401;SDS011;43226;51.110;6.998;2023-07-31T12:21:34;1.87;;;1.20;;
57401;SDS011;43226;51.110;6.998;2023-07-31T12:24:00;1.30;;;1.20;;
57401;SDS011;43226;51.110;6.998;2023-07-31T12:26:25;1.27;;;0.90;;
57401;SDS011;43226;51.110;6.998;2023-07-31T12:28:58;2.03;;;1.20;;
57401;SDS011;43226;51.110;6.998;2023-07-31T12:31:23;1.50;;;1.40;;
57401;SDS011;43226;51.110;6.998;2023-07-31T12:33:52;1.80;;;1.57;;
57401;SDS011;43226;51.110;6.998;2023-07-31T12:36:18;1.50;;;1.40;;
57401;SDS011;43226;51.110;6.998;2023-07-31T12:38:45;1.63;;;1.37;;
57401;SDS011;43226;51.110;6.998;2023-07-31T12:41:10;1.50;;;1.40;;
57401;SDS011;43226;51.110;6.998;2023-07-31T12:43:36;3.87;;;1.83;;
57401;SDS011;43226;51.110;6.998;2023-07-31T12:46:02;2.33;;;1.60;;
57401;SDS011;43226;51.110;6.998;2023-07-31T12:48:27;3.57;;;1.90;;
57401;SDS011;43226;51.110;6.998;2023-07-31T12:50:52;2.57;;;1.70;;
57401;SDS011;43226;51.110;6.998;2023-07-31T12:53:17;3.57;;;1.80;;
57401;SDS011;43226;51.110;6.998;2023-07-31T12:55:43;2.53;;;2.20;;
57401;SDS011;43226;51.110;6.998;2023-07-31T12:58:08;4.13;;;2.20;;
57401;SDS011;43226;51.110;6.998;2023-07-31T13:00:33;2.23;;;1.90;;
57401;SDS011;43226;51.110;6.998;2023-07-31T13:02:59;1.77;;;1.60;;
57401;SDS011;43226;51.110;6.998;2023-07-31T13:05:25;4.00;;;2.27;;
57401;SDS011;43226;51.110;6.998;2023-07-31T13:07:50;2.97;;;1.90;;
57401;SDS011;43226;51.110;6.998;2023-07-31T13:10:15;4.13;;;1.90;;
57401;SDS011;43226;51.110;6.998;2023-07-31T13:12:40;2.40;;;1.93;;
57401;SDS011;43226;51.110;6.998;2023-07-31T13:15:06;4.47;;;2.10;;
57401;SDS011;43226;51.110;6.998;2023-07-31T13:17:31;2.80;;;1.97;;
57401;SDS011;43226;51.110;6.998;2023-07-31T13:19:57;4.17;;;2.07;;
57401;SDS011;43226;51.110;6.998;2023-07-31T13:22:22;3.10;;;2.20;;
57401;SDS011;43226;51.110;6.998;2023-07-31T13:24:47;5.40;;;1.90;;
57401;SDS011;43226;51.110;6.998;2023-07-31T13:27:13;2.43;;;2.13;;
57401;SDS011;43226;51.110;6.998;2023-07-31T13:29:39;3.17;;;1.87;;
57401;SDS011;43226;51.110;6.998;2023-07-31T13:32:04;3.20;;;2.40;;
57401;SDS011;43226;51.110;6.998;2023-07-31T13:34:29;3.43;;;1.97;;
57401;SDS011;43226;51.110;6.998;2023-07-31T13:36:54;3.27;;;2.37;;
57401;SDS011;43226;51.110;6.998;2023-07-31T13:39:20;2.90;;;2.00;;
57401;SDS011;43226;51.110;6.998;2023-07-31T13:41:46;3.05;;;1.90;;
57401;SDS011;43226;51.110;6.998;2023-07-31T13:44:11;3.07;;;1.60;;
57401;SDS011;43226;51.110;6.998;2023-07-31T13:46:36;2.20;;;2.00;;
57401;SDS011;43226;51.110;6.998;2023-07-31T13:49:01;3.07;;;1.80;;
57401;SDS011;43226;51.110;6.998;2023-07-31T13:51:27;2.13;;;1.77;;
57401;SDS011;43226;51.110;6.998;2023-07-31T13:53:53;1.80;;;1.47;;
57401;SDS011;43226;51.110;6.998;2023-07-31T13:56:18;2.40;;;1.70;;
57401;SDS011;43226;51.110;6.998;2023-07-31T13:58:43;2.27;;;1.80;;
57401;SDS011;43226;51.110;6.998;2023-07-31T14:01:08;3.67;;;2.07;;
57401;SDS011;43226;51.110;6.998;2023-07-31T14:03:34;3.20;;;1.87;;
57401;SDS011;43226;51.110;6.998;2023-07-31T14:05:59;3.47;;;2.13;;
57401;SDS011;43226;51.110;6.998;2023-07-31T14:08:24;1.90;;;1.70;;
57401;SDS011;43226;51.110;6.998;2023-07-31T14:10:49;3.37;;;1.90;;
57401;SDS011;43226;51.110;6.998;2023-07-31T14:13:14;4.60;;;2.03;;
57401;SDS011;43226;51.110;6.998;2023-07-31T14:15:41;2.23;;;1.90;;
57401;SDS011;43226;51.110;6.998;2023-07-31T14:18:07;1.93;;;1.50;;
57401;SDS011;43226;51.110;6.998;2023-07-31T14:20:32;2.20;;;2.00;;
57401;SDS011;43226;51.110;6.998;2023-07-31T14:22:57;2.30;;;1.90;;
57401;SDS011;43226;51.110;6.998;2023-07-31T14:25:22;3.60;;;2.20;;
57401;SDS011;43226;51.110;6.998;2023-07-31T14:27:48;1.93;;;1.67;;
57401;SDS011;43226;51.110;6.998;2023-07-31T14:30:13;3.63;;;1.80;;
57401;SDS011;43226;51.110;6.998;2023-07-31T14:32:38;3.50;;;2.10;;
57401;SDS011;43226;51.110;6.998;2023-07-31T14:35:03;1.67;;;1.57;;
57401;SDS011;43226;51.110;6.998;2023-07-31T14:37:36;1.83;;;1.60;;
57401;SDS011;43226;51.110;6.998;2023-07-31T14:40:01;2.27;;;1.80;;
57401;SDS011;43226;51.110;6.998;2023-07-31T14:42:27;2.47;;;1.70;;
57401;SDS011;43226;51.110;6.998;2023-07-31T14:44:52;3.30;;;1.90;;
57401;SDS011;43226;51.110;6.998;2023-07-31T14:47:17;1.85;;;1.60;;
57401;SDS011;43226;51.110;6.998;2023-07-31T14:49:42;5.20;;;2.00;;